sensor_id;sensor_type;location;lat;lon;timestamp;temperature;humidity
20380;DHT22;10349;48.666;8.948;2024-03-07T00:01:29;4.90;99.90
20380;DHT22;10349;48.666;8.948;2024-03-07T00:03:56;4.90;99.90
20380;DHT22;10349;48.666;8.948;2024-03-07T00:06:22;4.90;99.90
20380;DHT22;10349;48.666;8.948;2024-03-07T00:08:48;4.90;99.90
20380;DHT22;10349;48.666;8.948;2024-03-07T00:11:14;4.90;99.90
20380;DHT22;10349;48.666;8.948;2024-03-07T00:13:39;4.90;99.90
20380;DHT22;10349;48.666;8.948;2024-03-07T00:16:05;4.90;99.90
20380;DHT22;10349;48.666;8.948;2024-03-07T00:18:30;4.90;99.90
20380;DHT22;10349;48.666;8.948;2024-03-07T00:20:56;4.90;99.90
20380;DHT22;10349;48.666;8.948;2024-03-07T00:23:22;4.90;99.90
20380;DHT22;10349;48.666;8.948;2024-03-07T00:25:47;4.90;99.90
20380;DHT22;10349;48.666;8.948;2024-03-07T00:28:15;4.90;99.90
20380;DHT22;10349;48.666;8.948;2024-03-07T00:30:43;4.90;99.90
20380;DHT22;10349;48.666;8.948;2024-03-07T00:33:11;4.90;99.90
20380;DHT22;10349;48.666;8.948;2024-03-07T00:35:37;4.80;99.90
20380;DHT22;10349;48.666;8.948;2024-03-07T00:38:03;4.80;99.90
20380;DHT22;10349;48.666;8.948;2024-03-07T00:40:29;4.80;99.90
20380;DHT22;10349;48.666;8.948;2024-03-07T00:42:55;4.80;99.90
20380;DHT22;10349;48.666;8.948;2024-03-07T00:45:20;4.80;99.90
20380;DHT22;10349;48.666;8.948;2024-03-07T00:47:46;4.80;99.90
20380;DHT22;10349;48.666;8.948;2024-03-07T00:50:14;4.80;99.90
20380;DHT22;10349;48.666;8.948;2024-03-07T00:52:40;4.80;99.90
20380;DHT22;10349;48.666;8.948;2024-03-07T00:55:06;4.80;99.90
20380;DHT22;10349;48.666;8.948;2024-03-07T00:57:34;4.70;99.90
20380;DHT22;10349;48.666;8.948;2024-03-07T01:00:00;4.70;99.90
20380;DHT22;10349;48.666;8.948;2024-03-07T01:02:26;4.70;99.90
20380;DHT22;10349;48.666;8.948;2024-03-07T01:04:51;4.60;99.90
20380;DHT22;10349;48.666;8.948;2024-03-07T01:07:19;4.60;99.90
20380;DHT22;10349;48.666;8.948;2024-03-07T01:09:44;4.60;99.90
20380;DHT22;10349;48.666;8.948;2024-03-07T01:12:10;4.60;99.90
20380;DHT22;10349;48.666;8.948;2024-03-07T01:14:36;4.50;99.90
20380;DHT22;10349;48.666;8.948;2024-03-07T01:17:02;4.50;99.90
20380;DHT22;10349;48.666;8.948;2024-03-07T01:19:28;4.40;99.90
20380;DHT22;10349;48.666;8.948;2024-03-07T01:21:54;4.40;99.90
20380;DHT22;10349;48.666;8.948;2024-03-07T01:24:19;4.40;99.90
20380;DHT22;10349;48.666;8.948;2024-03-07T01:26:46;4.40;99.90
20380;DHT22;10349;48.666;8.948;2024-03-07T01:29:12;4.40;99.90
20380;DHT22;10349;48.666;8.948;2024-03-07T01:31:37;4.40;99.90
20380;DHT22;10349;48.666;8.948;2024-03-07T01:34:03;4.30;99.90
20380;DHT22;10349;48.666;8.948;2024-03-07T01:36:28;4.30;99.90
20380;DHT22;10349;48.666;8.948;2024-03-07T01:38:55;4.30;99.90
20380;DHT22;10349;48.666;8.948;2024-03-07T01:41:21;4.30;99.90
20380;DHT22;10349;48.666;8.948;2024-03-07T01:43:47;4.30;99.90
20380;DHT22;10349;48.666;8.948;2024-03-07T01:46:12;4.20;99.90
20380;DHT22;10349;48.666;8.948;2024-03-07T01:48:39;4.20;99.90
20380;DHT22;10349;48.666;8.948;2024-03-07T01:51:06;4.20;99.90
20380;DHT22;10349;48.666;8.948;2024-03-07T01:53:32;4.10;99.90
20380;DHT22;10349;48.666;8.948;2024-03-07T01:55:59;4.10;99.90
20380;DHT22;10349;48.666;8.948;2024-03-07T01:58:25;4.10;99.90
20380;DHT22;10349;48.666;8.948;2024-03-07T02:00:51;4.00;99.90
20380;DHT22;10349;48.666;8.948;2024-03-07T02:03:17;4.00;99.90
20380;DHT22;10349;48.666;8.948;2024-03-07T02:05:43;4.00;99.90
20380;DHT22;10349;48.666;8.948;2024-03-07T02:08:08;4.00;99.90
20380;DHT22;10349;48.666;8.948;2024-03-07T02:10:34;3.90;99.90
20380;DHT22;10349;48.666;8.948;2024-03-07T02:13:00;3.90;99.90
20380;DHT22;10349;48.666;8.948;2024-03-07T02:15:28;3.90;99.90
20380;DHT22;10349;48.666;8.948;2024-03-07T02:17:54;3.90;99.90
20380;DHT22;10349;48.666;8.948;2024-03-07T02:20:20;3.90;99.90
20380;DHT22;10349;48.666;8.948;2024-03-07T02:22:46;3.80;99.90
20380;DHT22;10349;48.666;8.948;2024-03-07T02:25:12;3.80;99.90
20380;DHT22;10349;48.666;8.948;2024-03-07T02:27:38;3.80;99.90
20380;DHT22;10349;48.666;8.948;2024-03-07T02:30:05;3.80;99.90
20380;DHT22;10349;48.666;8.948;2024-03-07T02:32:34;3.70;99.90
20380;DHT22;10349;48.666;8.948;2024-03-07T02:35:00;3.70;99.90
20380;DHT22;10349;48.666;8.948;2024-03-07T02:37:25;3.70;99.90
20380;DHT22;10349;48.666;8.948;2024-03-07T02:39:51;3.70;99.90
20380;DHT22;10349;48.666;8.948;2024-03-07T02:42:17;3.70;99.90
20380;DHT22;10349;48.666;8.948;2024-03-07T02:44:42;3.70;99.90
20380;DHT22;10349;48.666;8.948;2024-03-07T02:47:08;3.70;99.90
20380;DHT22;10349;48.666;8.948;2024-03-07T02:49:34;3.70;99.90
20380;DHT22;10349;48.666;8.948;2024-03-07T02:52:00;3.70;99.90
20380;DHT22;10349;48.666;8.948;2024-03-07T02:54:26;3.70;99.90
20380;DHT22;10349;48.666;8.948;2024-03-07T02:56:51;3.70;99.90
20380;DHT22;10349;48.666;8.948;2024-03-07T02:59:17;3.70;99.90
20380;DHT22;10349;48.666;8.948;2024-03-07T03:01:42;3.70;99.90
20380;DHT22;10349;48.666;8.948;2024-03-07T03:04:08;3.70;99.90
20380;DHT22;10349;48.666;8.948;2024-03-07T03:06:34;3.70;99.90
20380;DHT22;10349;48.666;8.948;2024-03-07T03:08:59;3.70;99.90
20380;DHT22;10349;48.666;8.948;2024-03-07T03:11:25;3.70;99.90
20380;DHT22;10349;48.666;8.948;2024-03-07T03:13:51;3.60;99.90
20380;DHT22;10349;48.666;8.948;2024-03-07T03:16:17;3.40;99.90
20380;DHT22;10349;48.666;8.948;2024-03-07T03:18:43;3.30;99.90
20380;DHT22;10349;48.666;8.948;2024-03-07T03:21:08;3.20;99.90
20380;DHT22;10349;48.666;8.948;2024-03-07T03:23:34;3.10;99.90
20380;DHT22;10349;48.666;8.948;2024-03-07T03:26:00;3.00;99.90
20380;DHT22;10349;48.666;8.948;2024-03-07T03:28:26;2.90;99.90
20380;DHT22;10349;48.666;8.948;2024-03-07T03:30:51;2.90;99.90
20380;DHT22;10349;48.666;8.948;2024-03-07T03:33:18;2.90;99.90
20380;DHT22;10349;48.666;8.948;2024-03-07T03:35:46;2.90;99.90
20380;DHT22;10349;48.666;8.948;2024-03-07T03:38:12;2.90;99.90
20380;DHT22;10349;48.666;8.948;2024-03-07T03:40:37;2.90;99.90
20380;DHT22;10349;48.666;8.948;2024-03-07T03:43:03;2.90;99.90
20380;DHT22;10349;48.666;8.948;2024-03-07T03:45:29;2.90;99.90
20380;DHT22;10349;48.666;8.948;2024-03-07T03:47:56;2.80;99.90
20380;DHT22;10349;48.666;8.948;2024-03-07T03:50:22;2.80;99.90
20380;DHT22;10349;48.666;8.948;2024-03-07T03:52:51;2.70;99.90
20380;DHT22;10349;48.666;8.948;2024-03-07T03:55:17;2.60;99.90
20380;DHT22;10349;48.666;8.948;2024-03-07T03:57:44;2.40;99.90
20380;DHT22;10349;48.666;8.948;2024-03-07T04:00:12;2.40;99.90
20380;DHT22;10349;48.666;8.948;2024-03-07T04:02:39;2.30;99.90
20380;DHT22;10349;48.666;8.948;2024-03-07T04:05:05;2.30;99.90
20380;DHT22;10349;48.666;8.948;2024-03-07T04:07:31;2.30;99.90
20380;DHT22;10349;48.666;8.948;2024-03-07T04:09:57;2.20;99.90
20380;DHT22;10349;48.666;8.948;2024-03-07T04:12:28;2.20;99.90
20380;DHT22;10349;48.666;8.948;2024-03-07T04:14:54;2.10;99.90
20380;DHT22;10349;48.666;8.948;2024-03-07T04:17:22;2.10;99.90
20380;DHT22;10349;48.666;8.948;2024-03-07T04:19:48;2.10;99.90
20380;DHT22;10349;48.666;8.948;2024-03-07T04:22:14;2.10;99.90
20380;DHT22;10349;48.666;8.948;2024-03-07T04:24:39;2.10;99.90
20380;DHT22;10349;48.666;8.948;2024-03-07T04:27:06;2.10;99.90
20380;DHT22;10349;48.666;8.948;2024-03-07T04:29:33;2.20;99.90
20380;DHT22;10349;48.666;8.948;2024-03-07T04:32:02;2.20;99.90
20380;DHT22;10349;48.666;8.948;2024-03-07T04:34:29;2.20;99.90
20380;DHT22;10349;48.666;8.948;2024-03-07T04:37:02;2.30;99.90
20380;DHT22;10349;48.666;8.948;2024-03-07T04:39:28;2.20;99.90
20380;DHT22;10349;48.666;8.948;2024-03-07T04:42:04;2.20;99.90
20380;DHT22;10349;48.666;8.948;2024-03-07T04:44:32;2.20;99.90
20380;DHT22;10349;48.666;8.948;2024-03-07T04:46:59;2.20;99.90
20380;DHT22;10349;48.666;8.948;2024-03-07T04:49:26;2.20;99.90
20380;DHT22;10349;48.666;8.948;2024-03-07T04:51:56;2.20;99.90
20380;DHT22;10349;48.666;8.948;2024-03-07T04:54:23;2.10;99.90
20380;DHT22;10349;48.666;8.948;2024-03-07T04:56:50;2.10;99.90
20380;DHT22;10349;48.666;8.948;2024-03-07T04:59:18;2.10;99.90
20380;DHT22;10349;48.666;8.948;2024-03-07T05:01:44;2.00;99.90
20380;DHT22;10349;48.666;8.948;2024-03-07T05:04:12;2.00;99.90
20380;DHT22;10349;48.666;8.948;2024-03-07T05:06:38;2.00;99.90
20380;DHT22;10349;48.666;8.948;2024-03-07T05:09:06;1.90;99.90
20380;DHT22;10349;48.666;8.948;2024-03-07T05:11:33;1.80;99.90
20380;DHT22;10349;48.666;8.948;2024-03-07T05:13:59;1.80;99.90
20380;DHT22;10349;48.666;8.948;2024-03-07T05:16:29;1.70;99.90
20380;DHT22;10349;48.666;8.948;2024-03-07T05:18:55;1.70;99.90
20380;DHT22;10349;48.666;8.948;2024-03-07T05:21:24;1.70;99.90
20380;DHT22;10349;48.666;8.948;2024-03-07T05:24:01;1.70;99.90
20380;DHT22;10349;48.666;8.948;2024-03-07T05:26:31;1.70;99.90
20380;DHT22;10349;48.666;8.948;2024-03-07T05:29:07;1.70;99.90
20380;DHT22;10349;48.666;8.948;2024-03-07T05:31:38;1.60;99.90
20380;DHT22;10349;48.666;8.948;2024-03-07T05:34:04;1.60;99.90
20380;DHT22;10349;48.666;8.948;2024-03-07T05:36:37;1.60;99.90
20380;DHT22;10349;48.666;8.948;2024-03-07T05:39:16;1.50;99.90
20380;DHT22;10349;48.666;8.948;2024-03-07T05:41:44;1.50;99.90
20380;DHT22;10349;48.666;8.948;2024-03-07T05:44:14;1.50;99.90
20380;DHT22;10349;48.666;8.948;2024-03-07T05:46:41;1.40;99.90
20380;DHT22;10349;48.666;8.948;2024-03-07T05:49:11;1.40;99.90
20380;DHT22;10349;48.666;8.948;2024-03-07T05:51:37;1.40;99.90
20380;DHT22;10349;48.666;8.948;2024-03-07T05:54:03;1.40;99.90
20380;DHT22;10349;48.666;8.948;2024-03-07T05:56:35;1.30;99.90
20380;DHT22;10349;48.666;8.948;2024-03-07T05:59:05;1.30;99.90
20380;DHT22;10349;48.666;8.948;2024-03-07T06:01:33;1.30;99.90
20380;DHT22;10349;48.666;8.948;2024-03-07T06:04:00;1.30;99.90
20380;DHT22;10349;48.666;8.948;2024-03-07T06:06:26;1.30;99.90
20380;DHT22;10349;48.666;8.948;2024-03-07T06:08:53;1.30;99.90
20380;DHT22;10349;48.666;8.948;2024-03-07T06:11:18;1.20;99.90
20380;DHT22;10349;48.666;8.948;2024-03-07T06:13:47;1.20;99.90
20380;DHT22;10349;48.666;8.948;2024-03-07T06:16:13;1.30;99.90
20380;DHT22;10349;48.666;8.948;2024-03-07T06:18:42;1.20;99.90
20380;DHT22;10349;48.666;8.948;2024-03-07T06:21:08;1.20;99.90
20380;DHT22;10349;48.666;8.948;2024-03-07T06:23:34;1.20;99.90
20380;DHT22;10349;48.666;8.948;2024-03-07T06:26:00;1.10;99.90
20380;DHT22;10349;48.666;8.948;2024-03-07T06:28:26;1.10;99.90
20380;DHT22;10349;48.666;8.948;2024-03-07T06:30:55;1.10;99.90
20380;DHT22;10349;48.666;8.948;2024-03-07T06:33:21;0.90;99.90
20380;DHT22;10349;48.666;8.948;2024-03-07T06:35:47;0.90;99.90
20380;DHT22;10349;48.666;8.948;2024-03-07T06:38:14;0.90;99.90
20380;DHT22;10349;48.666;8.948;2024-03-07T06:40:40;0.90;99.90
20380;DHT22;10349;48.666;8.948;2024-03-07T06:43:06;1.00;99.90
20380;DHT22;10349;48.666;8.948;2024-03-07T06:45:35;1.00;99.90
20380;DHT22;10349;48.666;8.948;2024-03-07T06:48:06;1.00;99.90
20380;DHT22;10349;48.666;8.948;2024-03-07T06:50:36;1.10;99.90
20380;DHT22;10349;48.666;8.948;2024-03-07T06:53:03;1.10;99.90
20380;DHT22;10349;48.666;8.948;2024-03-07T06:55:29;1.20;99.90
20380;DHT22;10349;48.666;8.948;2024-03-07T06:57:54;1.20;99.90
20380;DHT22;10349;48.666;8.948;2024-03-07T07:00:20;1.20;99.90
20380;DHT22;10349;48.666;8.948;2024-03-07T07:02:49;1.20;99.90
20380;DHT22;10349;48.666;8.948;2024-03-07T07:05:16;1.20;99.90
20380;DHT22;10349;48.666;8.948;2024-03-07T07:07:44;1.30;99.90
20380;DHT22;10349;48.666;8.948;2024-03-07T07:10:11;1.30;99.90
20380;DHT22;10349;48.666;8.948;2024-03-07T07:12:49;1.30;99.90
20380;DHT22;10349;48.666;8.948;2024-03-07T07:15:16;1.30;99.90
20380;DHT22;10349;48.666;8.948;2024-03-07T07:17:43;1.30;99.90
20380;DHT22;10349;48.666;8.948;2024-03-07T07:20:12;1.30;99.90
20380;DHT22;10349;48.666;8.948;2024-03-07T07:22:41;1.30;99.90
20380;DHT22;10349;48.666;8.948;2024-03-07T07:25:07;1.40;99.90
20380;DHT22;10349;48.666;8.948;2024-03-07T07:27:44;1.40;99.90
20380;DHT22;10349;48.666;8.948;2024-03-07T07:30:11;1.40;99.90
20380;DHT22;10349;48.666;8.948;2024-03-07T07:32:37;1.40;99.90
20380;DHT22;10349;48.666;8.948;2024-03-07T07:35:04;1.40;99.90
20380;DHT22;10349;48.666;8.948;2024-03-07T07:37:35;1.40;99.90
20380;DHT22;10349;48.666;8.948;2024-03-07T07:40:02;1.40;99.90
20380;DHT22;10349;48.666;8.948;2024-03-07T07:42:28;1.40;99.90
20380;DHT22;10349;48.666;8.948;2024-03-07T07:44:54;1.50;99.90
20380;DHT22;10349;48.666;8.948;2024-03-07T07:47:19;1.50;99.90
20380;DHT22;10349;48.666;8.948;2024-03-07T07:49:45;1.50;99.90
20380;DHT22;10349;48.666;8.948;2024-03-07T07:52:11;1.60;99.90
20380;DHT22;10349;48.666;8.948;2024-03-07T07:54:42;1.70;99.90
20380;DHT22;10349;48.666;8.948;2024-03-07T07:57:07;1.60;99.90
20380;DHT22;10349;48.666;8.948;2024-03-07T07:59:33;1.60;99.90
20380;DHT22;10349;48.666;8.948;2024-03-07T08:01:58;1.80;99.90
20380;DHT22;10349;48.666;8.948;2024-03-07T08:04:24;1.80;99.90
20380;DHT22;10349;48.666;8.948;2024-03-07T08:06:50;1.80;99.90
20380;DHT22;10349;48.666;8.948;2024-03-07T08:09:17;1.90;99.90
20380;DHT22;10349;48.666;8.948;2024-03-07T08:11:42;2.00;99.90
20380;DHT22;10349;48.666;8.948;2024-03-07T08:14:08;1.90;99.90
20380;DHT22;10349;48.666;8.948;2024-03-07T08:16:34;2.00;99.90
20380;DHT22;10349;48.666;8.948;2024-03-07T08:18:59;2.10;99.90
20380;DHT22;10349;48.666;8.948;2024-03-07T08:21:25;2.10;99.90
20380;DHT22;10349;48.666;8.948;2024-03-07T08:23:51;2.10;99.90
20380;DHT22;10349;48.666;8.948;2024-03-07T08:26:17;2.20;99.90
20380;DHT22;10349;48.666;8.948;2024-03-07T08:28:42;2.20;99.90
20380;DHT22;10349;48.666;8.948;2024-03-07T08:31:08;2.20;99.90
20380;DHT22;10349;48.666;8.948;2024-03-07T08:33:35;2.10;99.90
20380;DHT22;10349;48.666;8.948;2024-03-07T08:36:00;2.20;99.90
20380;DHT22;10349;48.666;8.948;2024-03-07T08:38:26;2.20;99.90
20380;DHT22;10349;48.666;8.948;2024-03-07T08:40:52;2.30;99.90
20380;DHT22;10349;48.666;8.948;2024-03-07T08:43:18;2.40;99.90
20380;DHT22;10349;48.666;8.948;2024-03-07T08:45:44;2.50;99.90
20380;DHT22;10349;48.666;8.948;2024-03-07T08:48:09;2.50;99.90
20380;DHT22;10349;48.666;8.948;2024-03-07T08:50:35;2.50;99.90
20380;DHT22;10349;48.666;8.948;2024-03-07T08:53:03;2.50;99.90
20380;DHT22;10349;48.666;8.948;2024-03-07T08:55:29;2.50;99.90
20380;DHT22;10349;48.666;8.948;2024-03-07T08:57:56;2.50;99.90
20380;DHT22;10349;48.666;8.948;2024-03-07T09:00:22;2.60;99.90
20380;DHT22;10349;48.666;8.948;2024-03-07T09:02:58;2.60;99.90
20380;DHT22;10349;48.666;8.948;2024-03-07T09:05:24;2.70;99.90
20380;DHT22;10349;48.666;8.948;2024-03-07T09:07:51;2.80;99.90
20380;DHT22;10349;48.666;8.948;2024-03-07T09:10:18;2.80;99.90
20380;DHT22;10349;48.666;8.948;2024-03-07T09:12:44;2.80;99.90
20380;DHT22;10349;48.666;8.948;2024-03-07T09:15:10;2.90;99.90
20380;DHT22;10349;48.666;8.948;2024-03-07T09:17:36;2.90;99.90
20380;DHT22;10349;48.666;8.948;2024-03-07T09:20:03;3.00;99.90
20380;DHT22;10349;48.666;8.948;2024-03-07T09:22:32;3.10;99.90
20380;DHT22;10349;48.666;8.948;2024-03-07T09:24:58;3.20;99.90
20380;DHT22;10349;48.666;8.948;2024-03-07T09:27:24;3.20;99.90
20380;DHT22;10349;48.666;8.948;2024-03-07T09:29:50;3.20;99.90
20380;DHT22;10349;48.666;8.948;2024-03-07T09:32:16;3.30;99.90
20380;DHT22;10349;48.666;8.948;2024-03-07T09:34:42;3.30;99.90
20380;DHT22;10349;48.666;8.948;2024-03-07T09:37:08;3.30;99.90
20380;DHT22;10349;48.666;8.948;2024-03-07T09:39:34;3.30;99.90
20380;DHT22;10349;48.666;8.948;2024-03-07T09:42:07;3.30;99.90
20380;DHT22;10349;48.666;8.948;2024-03-07T09:44:36;3.40;99.90
20380;DHT22;10349;48.666;8.948;2024-03-07T09:47:05;3.40;99.90
20380;DHT22;10349;48.666;8.948;2024-03-07T09:49:32;3.40;99.90
20380;DHT22;10349;48.666;8.948;2024-03-07T09:51:59;3.40;99.90
20380;DHT22;10349;48.666;8.948;2024-03-07T09:54:26;3.50;99.90
20380;DHT22;10349;48.666;8.948;2024-03-07T09:56:58;3.50;99.90
20380;DHT22;10349;48.666;8.948;2024-03-07T09:59:25;3.50;99.90
20380;DHT22;10349;48.666;8.948;2024-03-07T10:01:57;3.50;99.90
20380;DHT22;10349;48.666;8.948;2024-03-07T10:04:43;3.50;99.90
20380;DHT22;10349;48.666;8.948;2024-03-07T10:07:17;3.60;99.90
20380;DHT22;10349;48.666;8.948;2024-03-07T10:09:44;3.60;99.90
20380;DHT22;10349;48.666;8.948;2024-03-07T10:12:10;3.70;99.90
20380;DHT22;10349;48.666;8.948;2024-03-07T10:14:58;3.70;99.90
20380;DHT22;10349;48.666;8.948;2024-03-07T10:17:27;3.70;99.90
20380;DHT22;10349;48.666;8.948;2024-03-07T10:19:52;3.70;99.90
20380;DHT22;10349;48.666;8.948;2024-03-07T10:22:20;3.80;99.90
20380;DHT22;10349;48.666;8.948;2024-03-07T10:24:51;3.80;99.90
20380;DHT22;10349;48.666;8.948;2024-03-07T10:27:20;3.80;99.90
20380;DHT22;10349;48.666;8.948;2024-03-07T10:29:52;3.90;99.90
20380;DHT22;10349;48.666;8.948;2024-03-07T10:32:22;3.90;99.90
20380;DHT22;10349;48.666;8.948;2024-03-07T10:34:50;3.90;99.90
20380;DHT22;10349;48.666;8.948;2024-03-07T10:37:15;4.00;99.90
20380;DHT22;10349;48.666;8.948;2024-03-07T10:39:45;4.00;99.90
20380;DHT22;10349;48.666;8.948;2024-03-07T10:42:15;4.00;99.90
20380;DHT22;10349;48.666;8.948;2024-03-07T10:44:53;4.10;99.90
20380;DHT22;10349;48.666;8.948;2024-03-07T10:47:21;4.10;99.90
20380;DHT22;10349;48.666;8.948;2024-03-07T10:50:15;4.10;99.90
20380;DHT22;10349;48.666;8.948;2024-03-07T10:52:49;4.10;99.90
20380;DHT22;10349;48.666;8.948;2024-03-07T10:55:46;4.20;99.90
20380;DHT22;10349;48.666;8.948;2024-03-07T10:58:34;4.20;99.90
20380;DHT22;10349;48.666;8.948;2024-03-07T11:01:04;4.20;99.90
20380;DHT22;10349;48.666;8.948;2024-03-07T11:03:35;4.20;99.90
20380;DHT22;10349;48.666;8.948;2024-03-07T11:06:01;4.40;99.90
20380;DHT22;10349;48.666;8.948;2024-03-07T11:08:34;4.40;99.90
20380;DHT22;10349;48.666;8.948;2024-03-07T11:11:00;4.50;99.90
20380;DHT22;10349;48.666;8.948;2024-03-07T11:13:27;4.50;99.90
20380;DHT22;10349;48.666;8.948;2024-03-07T11:15:54;4.50;99.90
20380;DHT22;10349;48.666;8.948;2024-03-07T11:18:23;4.60;99.90
20380;DHT22;10349;48.666;8.948;2024-03-07T11:20:49;4.60;99.90
20380;DHT22;10349;48.666;8.948;2024-03-07T11:23:28;4.70;99.90
20380;DHT22;10349;48.666;8.948;2024-03-07T11:26:14;4.70;99.90
20380;DHT22;10349;48.666;8.948;2024-03-07T11:28:41;4.80;99.90
20380;DHT22;10349;48.666;8.948;2024-03-07T11:31:08;4.90;99.90
20380;DHT22;10349;48.666;8.948;2024-03-07T11:33:37;4.90;99.90
20380;DHT22;10349;48.666;8.948;2024-03-07T11:36:06;4.90;99.90
20380;DHT22;10349;48.666;8.948;2024-03-07T11:38:32;4.80;99.90
20380;DHT22;10349;48.666;8.948;2024-03-07T11:41:01;4.70;99.90
20380;DHT22;10349;48.666;8.948;2024-03-07T11:43:31;4.60;99.90
20380;DHT22;10349;48.666;8.948;2024-03-07T11:45:58;4.60;99.90
20380;DHT22;10349;48.666;8.948;2024-03-07T11:48:24;4.60;99.90
20380;DHT22;10349;48.666;8.948;2024-03-07T11:50:50;4.60;99.90
20380;DHT22;10349;48.666;8.948;2024-03-07T11:53:16;4.70;99.90
20380;DHT22;10349;48.666;8.948;2024-03-07T11:55:42;4.70;99.90
20380;DHT22;10349;48.666;8.948;2024-03-07T11:58:18;4.80;99.90
20380;DHT22;10349;48.666;8.948;2024-03-07T12:00:48;4.90;99.90
20380;DHT22;10349;48.666;8.948;2024-03-07T12:03:20;4.90;99.90
20380;DHT22;10349;48.666;8.948;2024-03-07T12:05:50;4.90;99.90
20380;DHT22;10349;48.666;8.948;2024-03-07T12:08:19;5.00;99.90
20380;DHT22;10349;48.666;8.948;2024-03-07T12:10:48;5.10;99.90
20380;DHT22;10349;48.666;8.948;2024-03-07T12:13:17;5.10;99.90
20380;DHT22;10349;48.666;8.948;2024-03-07T12:15:45;5.10;99.90
20380;DHT22;10349;48.666;8.948;2024-03-07T12:18:11;5.20;99.90
20380;DHT22;10349;48.666;8.948;2024-03-07T12:20:40;5.20;99.90
20380;DHT22;10349;48.666;8.948;2024-03-07T12:23:07;5.30;99.90
20380;DHT22;10349;48.666;8.948;2024-03-07T12:25:35;5.30;99.90
20380;DHT22;10349;48.666;8.948;2024-03-07T12:28:09;5.30;99.90
20380;DHT22;10349;48.666;8.948;2024-03-07T12:30:51;5.30;99.90
20380;DHT22;10349;48.666;8.948;2024-03-07T12:33:21;5.30;99.90
20380;DHT22;10349;48.666;8.948;2024-03-07T12:35:52;5.30;99.90
20380;DHT22;10349;48.666;8.948;2024-03-07T12:38:21;5.30;99.90
20380;DHT22;10349;48.666;8.948;2024-03-07T12:41:02;5.30;99.90
20380;DHT22;10349;48.666;8.948;2024-03-07T12:43:33;5.30;99.90
20380;DHT22;10349;48.666;8.948;2024-03-07T12:45:58;5.30;99.90
20380;DHT22;10349;48.666;8.948;2024-03-07T12:48:25;5.20;99.90
20380;DHT22;10349;48.666;8.948;2024-03-07T12:50:51;5.20;99.90
20380;DHT22;10349;48.666;8.948;2024-03-07T12:53:23;5.20;99.90
20380;DHT22;10349;48.666;8.948;2024-03-07T12:55:52;5.20;99.90
20380;DHT22;10349;48.666;8.948;2024-03-07T12:58:18;5.30;99.90
20380;DHT22;10349;48.666;8.948;2024-03-07T13:00:45;5.30;99.90
20380;DHT22;10349;48.666;8.948;2024-03-07T13:03:12;5.40;99.90
20380;DHT22;10349;48.666;8.948;2024-03-07T13:05:40;5.40;99.90
20380;DHT22;10349;48.666;8.948;2024-03-07T13:08:10;5.60;99.90
20380;DHT22;10349;48.666;8.948;2024-03-07T13:10:42;5.60;99.90
20380;DHT22;10349;48.666;8.948;2024-03-07T13:13:08;5.70;99.90
20380;DHT22;10349;48.666;8.948;2024-03-07T13:15:37;5.80;99.90
20380;DHT22;10349;48.666;8.948;2024-03-07T13:18:04;5.90;99.90
20380;DHT22;10349;48.666;8.948;2024-03-07T13:20:31;6.00;99.90
20380;DHT22;10349;48.666;8.948;2024-03-07T13:22:57;6.10;99.90
20380;DHT22;10349;48.666;8.948;2024-03-07T13:25:25;6.20;99.90
20380;DHT22;10349;48.666;8.948;2024-03-07T13:30:36;6.40;99.90
20380;DHT22;10349;48.666;8.948;2024-03-07T13:33:03;6.40;99.90
20380;DHT22;10349;48.666;8.948;2024-03-07T13:35:29;6.50;99.90
20380;DHT22;10349;48.666;8.948;2024-03-07T13:37:55;6.50;99.90
20380;DHT22;10349;48.666;8.948;2024-03-07T13:40:23;6.50;99.90
20380;DHT22;10349;48.666;8.948;2024-03-07T13:42:53;6.50;99.90
20380;DHT22;10349;48.666;8.948;2024-03-07T13:45:21;6.50;99.90
20380;DHT22;10349;48.666;8.948;2024-03-07T13:47:48;6.50;99.90
20380;DHT22;10349;48.666;8.948;2024-03-07T13:50:17;6.50;99.90
20380;DHT22;10349;48.666;8.948;2024-03-07T13:52:48;6.50;99.90
20380;DHT22;10349;48.666;8.948;2024-03-07T14:01:35;6.30;99.90
20380;DHT22;10349;48.666;8.948;2024-03-07T14:07:28;6.30;99.90
20380;DHT22;10349;48.666;8.948;2024-03-07T14:13:30;6.20;99.90
20380;DHT22;10349;48.666;8.948;2024-03-07T14:16:40;6.30;99.90
20380;DHT22;10349;48.666;8.948;2024-03-07T14:22:06;6.20;99.90
20380;DHT22;10349;48.666;8.948;2024-03-07T14:30:55;6.30;99.90
20380;DHT22;10349;48.666;8.948;2024-03-07T14:33:30;6.30;99.90
20380;DHT22;10349;48.666;8.948;2024-03-07T14:36:07;6.30;99.90
20380;DHT22;10349;48.666;8.948;2024-03-07T14:38:53;6.30;99.90
20380;DHT22;10349;48.666;8.948;2024-03-07T14:41:24;6.30;99.90
20380;DHT22;10349;48.666;8.948;2024-03-07T14:44:02;6.30;99.90
20380;DHT22;10349;48.666;8.948;2024-03-07T14:46:28;6.30;99.90
20380;DHT22;10349;48.666;8.948;2024-03-07T14:48:53;6.30;99.90
20380;DHT22;10349;48.666;8.948;2024-03-07T14:51:19;6.20;99.90
20380;DHT22;10349;48.666;8.948;2024-03-07T14:53:46;6.20;99.90
20380;DHT22;10349;48.666;8.948;2024-03-07T14:56:12;6.20;99.90
20380;DHT22;10349;48.666;8.948;2024-03-07T14:58:37;6.10;99.90
20380;DHT22;10349;48.666;8.948;2024-03-07T15:01:04;6.10;99.90
20380;DHT22;10349;48.666;8.948;2024-03-07T15:03:31;6.00;99.90
20380;DHT22;10349;48.666;8.948;2024-03-07T15:05:57;6.00;99.90
20380;DHT22;10349;48.666;8.948;2024-03-07T15:08:24;6.00;99.90
20380;DHT22;10349;48.666;8.948;2024-03-07T15:10:59;6.00;99.90
20380;DHT22;10349;48.666;8.948;2024-03-07T15:13:29;6.00;99.90
20380;DHT22;10349;48.666;8.948;2024-03-07T15:15:54;6.00;99.90
20380;DHT22;10349;48.666;8.948;2024-03-07T15:18:21;6.00;99.90
20380;DHT22;10349;48.666;8.948;2024-03-07T15:20:47;6.00;99.90
20380;DHT22;10349;48.666;8.948;2024-03-07T15:23:13;6.00;99.90
20380;DHT22;10349;48.666;8.948;2024-03-07T15:25:39;6.00;99.90
20380;DHT22;10349;48.666;8.948;2024-03-07T15:28:04;6.00;99.90
20380;DHT22;10349;48.666;8.948;2024-03-07T15:30:30;6.00;99.90
20380;DHT22;10349;48.666;8.948;2024-03-07T15:33:02;6.00;99.90
20380;DHT22;10349;48.666;8.948;2024-03-07T15:35:29;6.00;99.90
20380;DHT22;10349;48.666;8.948;2024-03-07T15:37:56;6.00;99.90
20380;DHT22;10349;48.666;8.948;2024-03-07T15:40:22;6.00;99.90
20380;DHT22;10349;48.666;8.948;2024-03-07T15:42:50;6.00;99.90
20380;DHT22;10349;48.666;8.948;2024-03-07T15:45:21;6.00;99.90
20380;DHT22;10349;48.666;8.948;2024-03-07T15:47:49;6.00;99.90
20380;DHT22;10349;48.666;8.948;2024-03-07T15:50:15;6.00;99.90
20380;DHT22;10349;48.666;8.948;2024-03-07T15:52:53;6.00;99.90
20380;DHT22;10349;48.666;8.948;2024-03-07T15:55:19;6.10;99.90
20380;DHT22;10349;48.666;8.948;2024-03-07T15:57:56;6.10;99.90
20380;DHT22;10349;48.666;8.948;2024-03-07T16:00:25;6.00;99.90
20380;DHT22;10349;48.666;8.948;2024-03-07T16:03:05;6.00;99.90
20380;DHT22;10349;48.666;8.948;2024-03-07T16:05:34;6.10;99.90
20380;DHT22;10349;48.666;8.948;2024-03-07T16:08:02;6.10;99.90
20380;DHT22;10349;48.666;8.948;2024-03-07T16:10:32;6.10;99.90
20380;DHT22;10349;48.666;8.948;2024-03-07T16:13:00;6.10;99.90
20380;DHT22;10349;48.666;8.948;2024-03-07T16:15:27;6.10;99.90